CheckWX is a tool to help pilots better visualize weather data.  It is not intended as a substitute for an official pre-flight weather briefing.

08:03:01 UTC

PASD TAF
Sand Point Airport
Sand Point, Alaska, USA
PASD 190535Z 1906/2006 VRB06KT P6SM VCSH SCT040 BKN060 FM191400 04010KT P6SM BKN040 OVC100 FM192000 05012G18KT P6SM BKN030 AMD LTD TO CLD VIS AND WIND

Mar-19@
06:00 UTC

Mar-19 @ 06:00 UTC

Mar-19@
14:00 UTC

Mar-19 @ 14:00 UTC

PASD 190535Z 1906/2006 VRB06KT P6SM VCSH SCT040 BKN060
Wind
  • Variable at 6 KTS
Cloud Levels
  • Scattered at 4,000' AGL
  • Broken at 6,000' AGL

Mar-19@
14:00 UTC

Mar-19 @ 14:00 UTC

Mar-19@
20:00 UTC

Mar-19 @ 20:00 UTC

FM191400 04010KT P6SM BKN040 OVC100

From

From Standard forecast or significant change

Wind
  • 040° at 10 KTS
Cloud Levels
  • Broken at 4,000' AGL
  • Overcast at 10,000' AGL

Mar-19@
20:00 UTC

Mar-19 @ 20:00 UTC

Mar-20@
06:00 UTC

Mar-20 @ 06:00 UTC

FM192000 05012G18KT P6SM BKN030 AMD LTD TO CLD VIS AND WIND

From

From Standard forecast or significant change

Wind
  • 050° at 12 KTS
  • {Gusting to 18 KTS
Cloud Levels
  • Broken at 3,000' AGL